sensor_id;sensor_type;location;lat;lon;timestamp;temperature;humidity
46608;DHT22;32330;51.936;7.184;2023-05-21T00:00:19;14.80;1.00
46608;DHT22;32330;51.936;7.184;2023-05-21T00:02:46;14.80;1.00
46608;DHT22;32330;51.936;7.184;2023-05-21T00:05:13;14.80;1.00
46608;DHT22;32330;51.936;7.184;2023-05-21T00:07:42;14.80;1.00
46608;DHT22;32330;51.936;7.184;2023-05-21T00:10:10;14.70;1.00
46608;DHT22;32330;51.936;7.184;2023-05-21T00:12:38;14.70;1.00
46608;DHT22;32330;51.936;7.184;2023-05-21T00:15:06;14.60;1.00
46608;DHT22;32330;51.936;7.184;2023-05-21T00:17:33;14.60;1.00
46608;DHT22;32330;51.936;7.184;2023-05-21T00:20:02;14.60;1.00
46608;DHT22;32330;51.936;7.184;2023-05-21T00:22:31;14.60;1.00
46608;DHT22;32330;51.936;7.184;2023-05-21T00:25:00;14.50;1.00
46608;DHT22;32330;51.936;7.184;2023-05-21T00:27:27;14.50;1.00
46608;DHT22;32330;51.936;7.184;2023-05-21T00:29:56;14.50;1.00
46608;DHT22;32330;51.936;7.184;2023-05-21T00:32:22;14.50;1.00
46608;DHT22;32330;51.936;7.184;2023-05-21T00:34:50;14.50;1.00
46608;DHT22;32330;51.936;7.184;2023-05-21T00:37:17;14.50;1.00
46608;DHT22;32330;51.936;7.184;2023-05-21T00:39:43;14.50;1.00
46608;DHT22;32330;51.936;7.184;2023-05-21T00:42:10;14.40;1.00
46608;DHT22;32330;51.936;7.184;2023-05-21T00:44:37;14.40;3.30
46608;DHT22;32330;51.936;7.184;2023-05-21T00:47:06;14.40;5.10
46608;DHT22;32330;51.936;7.184;2023-05-21T00:49:33;14.30;16.30
46608;DHT22;32330;51.936;7.184;2023-05-21T00:52:00;14.30;17.30
46608;DHT22;32330;51.936;7.184;2023-05-21T00:54:27;14.30;22.10
46608;DHT22;32330;51.936;7.184;2023-05-21T00:56:54;14.20;22.40
46608;DHT22;32330;51.936;7.184;2023-05-21T00:59:21;14.20;28.00
46608;DHT22;32330;51.936;7.184;2023-05-21T01:01:49;14.20;25.20
46608;DHT22;32330;51.936;7.184;2023-05-21T01:04:22;14.20;25.90
46608;DHT22;32330;51.936;7.184;2023-05-21T01:06:49;14.20;24.80
46608;DHT22;32330;51.936;7.184;2023-05-21T01:09:17;14.20;33.40
46608;DHT22;32330;51.936;7.184;2023-05-21T01:11:45;14.10;38.30
46608;DHT22;32330;51.936;7.184;2023-05-21T01:14:13;14.10;43.50
46608;DHT22;32330;51.936;7.184;2023-05-21T01:16:41;14.10;42.80
46608;DHT22;32330;51.936;7.184;2023-05-21T01:19:09;14.10;38.60
46608;DHT22;32330;51.936;7.184;2023-05-21T01:21:40;14.10;42.20
46608;DHT22;32330;51.936;7.184;2023-05-21T01:24:08;14.10;50.00
46608;DHT22;32330;51.936;7.184;2023-05-21T01:26:35;14.00;52.00
46608;DHT22;32330;51.936;7.184;2023-05-21T01:29:03;14.00;57.90
46608;DHT22;32330;51.936;7.184;2023-05-21T01:31:33;14.00;56.00
46608;DHT22;32330;51.936;7.184;2023-05-21T01:34:00;14.00;61.40
46608;DHT22;32330;51.936;7.184;2023-05-21T01:36:31;14.00;60.60
46608;DHT22;32330;51.936;7.184;2023-05-21T01:39:01;14.00;59.20
46608;DHT22;32330;51.936;7.184;2023-05-21T01:41:30;13.90;65.50
46608;DHT22;32330;51.936;7.184;2023-05-21T01:43:58;13.90;63.50
46608;DHT22;32330;51.936;7.184;2023-05-21T01:46:26;13.90;66.20
46608;DHT22;32330;51.936;7.184;2023-05-21T01:48:54;13.90;69.40
46608;DHT22;32330;51.936;7.184;2023-05-21T01:51:21;13.90;69.70
46608;DHT22;32330;51.936;7.184;2023-05-21T01:53:49;13.90;70.50
46608;DHT22;32330;51.936;7.184;2023-05-21T01:56:16;13.90;70.80
46608;DHT22;32330;51.936;7.184;2023-05-21T01:58:44;13.90;71.80
46608;DHT22;32330;51.936;7.184;2023-05-21T02:01:11;13.90;72.70
46608;DHT22;32330;51.936;7.184;2023-05-21T02:03:38;13.90;73.50
46608;DHT22;32330;51.936;7.184;2023-05-21T02:06:05;13.80;72.70
46608;DHT22;32330;51.936;7.184;2023-05-21T02:08:32;13.80;73.50
46608;DHT22;32330;51.936;7.184;2023-05-21T02:10:59;13.80;75.40
46608;DHT22;32330;51.936;7.184;2023-05-21T02:13:26;13.80;77.20
46608;DHT22;32330;51.936;7.184;2023-05-21T02:15:55;13.80;74.60
46608;DHT22;32330;51.936;7.184;2023-05-21T02:18:22;13.70;75.40
46608;DHT22;32330;51.936;7.184;2023-05-21T02:20:50;13.80;76.90
46608;DHT22;32330;51.936;7.184;2023-05-21T02:23:17;13.70;78.10
46608;DHT22;32330;51.936;7.184;2023-05-21T02:25:44;13.70;77.20
46608;DHT22;32330;51.936;7.184;2023-05-21T02:28:11;13.70;79.30
46608;DHT22;32330;51.936;7.184;2023-05-21T02:30:38;13.60;80.60
46608;DHT22;32330;51.936;7.184;2023-05-21T02:33:07;13.70;81.10
46608;DHT22;32330;51.936;7.184;2023-05-21T02:35:34;13.60;82.00
46608;DHT22;32330;51.936;7.184;2023-05-21T02:38:01;13.60;83.90
46608;DHT22;32330;51.936;7.184;2023-05-21T02:40:28;13.60;83.60
46608;DHT22;32330;51.936;7.184;2023-05-21T02:42:55;13.60;81.80
46608;DHT22;32330;51.936;7.184;2023-05-21T02:45:22;13.60;83.30
46608;DHT22;32330;51.936;7.184;2023-05-21T02:47:51;13.60;84.30
46608;DHT22;32330;51.936;7.184;2023-05-21T02:50:20;13.50;83.70
46608;DHT22;32330;51.936;7.184;2023-05-21T02:52:53;13.50;87.30
46608;DHT22;32330;51.936;7.184;2023-05-21T02:55:20;13.50;88.50
46608;DHT22;32330;51.936;7.184;2023-05-21T02:57:47;13.50;90.20
46608;DHT22;32330;51.936;7.184;2023-05-21T03:00:14;13.50;89.20
46608;DHT22;32330;51.936;7.184;2023-05-21T03:02:41;13.50;90.30
46608;DHT22;32330;51.936;7.184;2023-05-21T03:05:09;13.50;90.90
46608;DHT22;32330;51.936;7.184;2023-05-21T03:07:37;13.50;91.00
46608;DHT22;32330;51.936;7.184;2023-05-21T03:10:04;13.50;91.50
46608;DHT22;32330;51.936;7.184;2023-05-21T03:12:31;13.40;92.10
46608;DHT22;32330;51.936;7.184;2023-05-21T03:14:58;13.40;92.00
46608;DHT22;32330;51.936;7.184;2023-05-21T03:17:26;13.40;92.70
46608;DHT22;32330;51.936;7.184;2023-05-21T03:19:53;13.40;92.70
46608;DHT22;32330;51.936;7.184;2023-05-21T03:22:20;13.40;92.70
46608;DHT22;32330;51.936;7.184;2023-05-21T03:24:49;13.40;93.10
46608;DHT22;32330;51.936;7.184;2023-05-21T03:27:17;13.40;93.60
46608;DHT22;32330;51.936;7.184;2023-05-21T03:29:45;13.40;93.50
46608;DHT22;32330;51.936;7.184;2023-05-21T03:32:12;13.40;93.40
46608;DHT22;32330;51.936;7.184;2023-05-21T03:34:39;13.40;93.70
46608;DHT22;32330;51.936;7.184;2023-05-21T03:37:06;13.40;94.10
46608;DHT22;32330;51.936;7.184;2023-05-21T03:39:34;13.40;93.50
46608;DHT22;32330;51.936;7.184;2023-05-21T03:42:03;13.40;94.90
46608;DHT22;32330;51.936;7.184;2023-05-21T03:44:37;13.40;95.00
46608;DHT22;32330;51.936;7.184;2023-05-21T03:47:30;13.40;95.00
46608;DHT22;32330;51.936;7.184;2023-05-21T03:49:59;13.40;94.80
46608;DHT22;32330;51.936;7.184;2023-05-21T03:52:26;13.40;94.80
46608;DHT22;32330;51.936;7.184;2023-05-21T03:54:53;13.40;95.20
46608;DHT22;32330;51.936;7.184;2023-05-21T03:57:21;13.40;95.30
46608;DHT22;32330;51.936;7.184;2023-05-21T03:59:48;13.40;95.00
46608;DHT22;32330;51.936;7.184;2023-05-21T04:02:15;13.40;95.60
46608;DHT22;32330;51.936;7.184;2023-05-21T04:04:42;13.40;95.50
46608;DHT22;32330;51.936;7.184;2023-05-21T04:07:10;13.40;95.90
46608;DHT22;32330;51.936;7.184;2023-05-21T04:09:40;13.40;95.50
46608;DHT22;32330;51.936;7.184;2023-05-21T04:12:07;13.40;95.50
46608;DHT22;32330;51.936;7.184;2023-05-21T04:14:37;13.40;95.90
46608;DHT22;32330;51.936;7.184;2023-05-21T04:17:04;13.50;95.80
46608;DHT22;32330;51.936;7.184;2023-05-21T04:19:31;13.50;95.80
46608;DHT22;32330;51.936;7.184;2023-05-21T04:21:58;13.60;95.60
46608;DHT22;32330;51.936;7.184;2023-05-21T04:24:25;13.60;95.00
46608;DHT22;32330;51.936;7.184;2023-05-21T04:27:06;13.60;94.70
46608;DHT22;32330;51.936;7.184;2023-05-21T04:29:34;13.70;94.50
46608;DHT22;32330;51.936;7.184;2023-05-21T04:32:04;13.70;95.10
46608;DHT22;32330;51.936;7.184;2023-05-21T04:34:31;13.70;95.30
46608;DHT22;32330;51.936;7.184;2023-05-21T04:36:58;13.80;94.90
46608;DHT22;32330;51.936;7.184;2023-05-21T04:39:26;13.80;94.70
46608;DHT22;32330;51.936;7.184;2023-05-21T04:41:56;13.80;93.90
46608;DHT22;32330;51.936;7.184;2023-05-21T04:44:39;13.80;94.40
46608;DHT22;32330;51.936;7.184;2023-05-21T04:47:10;13.80;94.30
46608;DHT22;32330;51.936;7.184;2023-05-21T04:49:39;13.90;94.80
46608;DHT22;32330;51.936;7.184;2023-05-21T04:52:06;13.90;94.00
46608;DHT22;32330;51.936;7.184;2023-05-21T04:54:33;13.90;93.80
46608;DHT22;32330;51.936;7.184;2023-05-21T04:57:01;13.90;94.60
46608;DHT22;32330;51.936;7.184;2023-05-21T04:59:28;13.90;93.80
46608;DHT22;32330;51.936;7.184;2023-05-21T05:01:55;13.90;94.10
46608;DHT22;32330;51.936;7.184;2023-05-21T05:04:23;13.90;93.50
46608;DHT22;32330;51.936;7.184;2023-05-21T05:06:50;13.90;94.10
46608;DHT22;32330;51.936;7.184;2023-05-21T05:09:17;13.90;94.10
46608;DHT22;32330;51.936;7.184;2023-05-21T05:11:46;14.00;93.60
46608;DHT22;32330;51.936;7.184;2023-05-21T05:14:13;14.00;93.60
46608;DHT22;32330;51.936;7.184;2023-05-21T05:16:41;14.10;92.80
46608;DHT22;32330;51.936;7.184;2023-05-21T05:19:09;14.20;92.50
46608;DHT22;32330;51.936;7.184;2023-05-21T05:21:37;14.10;91.60
46608;DHT22;32330;51.936;7.184;2023-05-21T05:24:04;14.10;92.60
46608;DHT22;32330;51.936;7.184;2023-05-21T05:26:31;14.10;93.40
46608;DHT22;32330;51.936;7.184;2023-05-21T05:28:59;14.20;93.00
46608;DHT22;32330;51.936;7.184;2023-05-21T05:31:25;14.20;92.70
46608;DHT22;32330;51.936;7.184;2023-05-21T05:33:52;14.30;91.70
46608;DHT22;32330;51.936;7.184;2023-05-21T05:36:20;14.30;91.00
46608;DHT22;32330;51.936;7.184;2023-05-21T05:38:48;14.30;91.90
46608;DHT22;32330;51.936;7.184;2023-05-21T05:41:16;14.40;91.00
46608;DHT22;32330;51.936;7.184;2023-05-21T05:43:43;14.40;90.20
46608;DHT22;32330;51.936;7.184;2023-05-21T05:46:10;14.40;90.10
46608;DHT22;32330;51.936;7.184;2023-05-21T05:48:36;14.50;89.90
46608;DHT22;32330;51.936;7.184;2023-05-21T05:51:04;14.50;90.70
46608;DHT22;32330;51.936;7.184;2023-05-21T05:53:31;14.50;88.40
46608;DHT22;32330;51.936;7.184;2023-05-21T05:55:59;14.60;90.20
46608;DHT22;32330;51.936;7.184;2023-05-21T05:58:28;14.60;88.30
46608;DHT22;32330;51.936;7.184;2023-05-21T06:01:02;14.70;86.60
46608;DHT22;32330;51.936;7.184;2023-05-21T06:03:29;14.80;85.60
46608;DHT22;32330;51.936;7.184;2023-05-21T06:05:56;14.80;86.70
46608;DHT22;32330;51.936;7.184;2023-05-21T06:08:25;14.80;87.70
46608;DHT22;32330;51.936;7.184;2023-05-21T06:10:52;14.90;83.40
46608;DHT22;32330;51.936;7.184;2023-05-21T06:13:20;14.90;83.20
46608;DHT22;32330;51.936;7.184;2023-05-21T06:15:47;14.90;83.10
46608;DHT22;32330;51.936;7.184;2023-05-21T06:18:14;15.10;80.30
46608;DHT22;32330;51.936;7.184;2023-05-21T06:20:41;15.10;75.60
46608;DHT22;32330;51.936;7.184;2023-05-21T06:23:08;15.20;76.80
46608;DHT22;32330;51.936;7.184;2023-05-21T06:25:35;15.20;72.30
46608;DHT22;32330;51.936;7.184;2023-05-21T06:28:03;15.30;73.40
46608;DHT22;32330;51.936;7.184;2023-05-21T06:30:31;15.40;69.40
46608;DHT22;32330;51.936;7.184;2023-05-21T06:32:59;15.50;64.70
46608;DHT22;32330;51.936;7.184;2023-05-21T06:35:29;15.60;62.10
46608;DHT22;32330;51.936;7.184;2023-05-21T06:37:58;15.70;59.70
46608;DHT22;32330;51.936;7.184;2023-05-21T06:40:28;15.90;58.20
46608;DHT22;32330;51.936;7.184;2023-05-21T06:42:57;16.00;51.60
46608;DHT22;32330;51.936;7.184;2023-05-21T06:45:36;16.20;44.60
46608;DHT22;32330;51.936;7.184;2023-05-21T06:48:36;16.30;40.20
46608;DHT22;32330;51.936;7.184;2023-05-21T06:51:10;16.40;35.50
46608;DHT22;32330;51.936;7.184;2023-05-21T06:53:37;16.60;29.20
46608;DHT22;32330;51.936;7.184;2023-05-21T06:56:04;16.60;36.00
46608;DHT22;32330;51.936;7.184;2023-05-21T06:58:37;16.50;37.40
46608;DHT22;32330;51.936;7.184;2023-05-21T07:01:05;16.40;34.10
46608;DHT22;32330;51.936;7.184;2023-05-21T07:03:32;16.50;39.00
46608;DHT22;32330;51.936;7.184;2023-05-21T07:05:59;16.70;36.50
46608;DHT22;32330;51.936;7.184;2023-05-21T07:08:32;16.70;25.10
46608;DHT22;32330;51.936;7.184;2023-05-21T07:10:59;16.80;22.70
46608;DHT22;32330;51.936;7.184;2023-05-21T07:13:28;16.90;23.40
46608;DHT22;32330;51.936;7.184;2023-05-21T07:15:55;16.90;21.40
46608;DHT22;32330;51.936;7.184;2023-05-21T07:18:25;16.90;29.90
46608;DHT22;32330;51.936;7.184;2023-05-21T07:20:52;17.00;26.30
46608;DHT22;32330;51.936;7.184;2023-05-21T07:23:19;17.10;23.40
46608;DHT22;32330;51.936;7.184;2023-05-21T07:25:46;17.10;20.20
46608;DHT22;32330;51.936;7.184;2023-05-21T07:28:13;17.10;20.60
46608;DHT22;32330;51.936;7.184;2023-05-21T07:30:40;17.30;21.60
46608;DHT22;32330;51.936;7.184;2023-05-21T07:33:12;17.40;22.80
46608;DHT22;32330;51.936;7.184;2023-05-21T07:35:40;17.50;18.80
46608;DHT22;32330;51.936;7.184;2023-05-21T07:38:07;17.50;22.10
46608;DHT22;32330;51.936;7.184;2023-05-21T07:40:34;17.40;25.80
46608;DHT22;32330;51.936;7.184;2023-05-21T07:43:02;17.40;23.00
46608;DHT22;32330;51.936;7.184;2023-05-21T07:45:30;17.60;25.30
46608;DHT22;32330;51.936;7.184;2023-05-21T07:47:58;17.80;19.20
46608;DHT22;32330;51.936;7.184;2023-05-21T07:50:28;17.70;25.80
46608;DHT22;32330;51.936;7.184;2023-05-21T07:52:57;17.60;32.00
46608;DHT22;32330;51.936;7.184;2023-05-21T07:55:24;17.70;34.70
46608;DHT22;32330;51.936;7.184;2023-05-21T07:57:51;17.90;57.80
46608;DHT22;32330;51.936;7.184;2023-05-21T08:00:23;18.00;56.90
46608;DHT22;32330;51.936;7.184;2023-05-21T08:02:53;17.90;77.40
46608;DHT22;32330;51.936;7.184;2023-05-21T08:05:20;18.00;75.60
46608;DHT22;32330;51.936;7.184;2023-05-21T08:07:49;18.10;73.60
46608;DHT22;32330;51.936;7.184;2023-05-21T08:10:18;18.20;99.90
46608;DHT22;32330;51.936;7.184;2023-05-21T08:12:47;18.20;99.90
46608;DHT22;32330;51.936;7.184;2023-05-21T08:15:14;18.40;99.90
46608;DHT22;32330;51.936;7.184;2023-05-21T08:17:44;18.50;99.90
46608;DHT22;32330;51.936;7.184;2023-05-21T08:20:12;18.50;99.90
46608;DHT22;32330;51.936;7.184;2023-05-21T08:22:40;18.60;99.90
46608;DHT22;32330;51.936;7.184;2023-05-21T08:25:08;18.60;99.90
46608;DHT22;32330;51.936;7.184;2023-05-21T08:27:36;18.80;99.90
46608;DHT22;32330;51.936;7.184;2023-05-21T08:30:04;18.90;99.90
46608;DHT22;32330;51.936;7.184;2023-05-21T08:32:31;19.10;99.90
46608;DHT22;32330;51.936;7.184;2023-05-21T08:35:01;19.10;99.90
46608;DHT22;32330;51.936;7.184;2023-05-21T08:37:51;19.40;99.90
46608;DHT22;32330;51.936;7.184;2023-05-21T08:40:34;19.50;99.90
46608;DHT22;32330;51.936;7.184;2023-05-21T08:43:03;19.60;99.90
46608;DHT22;32330;51.936;7.184;2023-05-21T08:45:41;19.60;99.90
46608;DHT22;32330;51.936;7.184;2023-05-21T08:48:09;19.60;99.90
46608;DHT22;32330;51.936;7.184;2023-05-21T08:50:36;19.50;99.90
46608;DHT22;32330;51.936;7.184;2023-05-21T08:53:11;19.70;99.90
46608;DHT22;32330;51.936;7.184;2023-05-21T08:55:37;19.80;99.90
46608;DHT22;32330;51.936;7.184;2023-05-21T08:58:08;19.90;99.90
46608;DHT22;32330;51.936;7.184;2023-05-21T09:00:36;20.00;99.90
46608;DHT22;32330;51.936;7.184;2023-05-21T09:03:03;19.90;99.90
46608;DHT22;32330;51.936;7.184;2023-05-21T09:05:32;20.00;99.90
46608;DHT22;32330;51.936;7.184;2023-05-21T09:08:02;20.20;99.90
46608;DHT22;32330;51.936;7.184;2023-05-21T09:10:46;20.30;99.90
46608;DHT22;32330;51.936;7.184;2023-05-21T09:13:15;20.40;99.90
46608;DHT22;32330;51.936;7.184;2023-05-21T09:15:42;20.40;99.90
46608;DHT22;32330;51.936;7.184;2023-05-21T09:18:09;20.30;99.90
46608;DHT22;32330;51.936;7.184;2023-05-21T09:21:01;20.30;99.90
46608;DHT22;32330;51.936;7.184;2023-05-21T09:23:51;20.30;99.90
46608;DHT22;32330;51.936;7.184;2023-05-21T09:26:18;20.70;99.90
46608;DHT22;32330;51.936;7.184;2023-05-21T09:28:48;20.70;99.90
46608;DHT22;32330;51.936;7.184;2023-05-21T09:31:18;20.80;99.90
46608;DHT22;32330;51.936;7.184;2023-05-21T09:33:47;20.80;99.90
46608;DHT22;32330;51.936;7.184;2023-05-21T09:36:16;20.90;99.90
46608;DHT22;32330;51.936;7.184;2023-05-21T09:38:44;21.10;99.90
46608;DHT22;32330;51.936;7.184;2023-05-21T09:41:12;21.20;99.90
46608;DHT22;32330;51.936;7.184;2023-05-21T09:43:40;21.10;99.90
46608;DHT22;32330;51.936;7.184;2023-05-21T09:46:10;21.20;99.90
46608;DHT22;32330;51.936;7.184;2023-05-21T09:48:37;21.20;99.90
46608;DHT22;32330;51.936;7.184;2023-05-21T09:51:08;21.20;99.90
46608;DHT22;32330;51.936;7.184;2023-05-21T09:53:35;21.40;99.90
46608;DHT22;32330;51.936;7.184;2023-05-21T09:56:02;21.70;99.90
46608;DHT22;32330;51.936;7.184;2023-05-21T09:58:29;21.90;99.90
46608;DHT22;32330;51.936;7.184;2023-05-21T10:00:57;22.30;99.90
46608;DHT22;32330;51.936;7.184;2023-05-21T10:03:26;22.50;99.90
46608;DHT22;32330;51.936;7.184;2023-05-21T10:05:53;22.40;99.90
46608;DHT22;32330;51.936;7.184;2023-05-21T10:08:20;22.40;99.90
46608;DHT22;32330;51.936;7.184;2023-05-21T10:10:48;22.60;99.90
46608;DHT22;32330;51.936;7.184;2023-05-21T10:13:16;22.80;99.90
46608;DHT22;32330;51.936;7.184;2023-05-21T10:15:44;22.80;99.90
46608;DHT22;32330;51.936;7.184;2023-05-21T10:18:11;22.80;99.90
46608;DHT22;32330;51.936;7.184;2023-05-21T10:20:40;23.00;99.90
46608;DHT22;32330;51.936;7.184;2023-05-21T10:23:07;22.90;99.90
46608;DHT22;32330;51.936;7.184;2023-05-21T10:25:35;22.80;99.90
46608;DHT22;32330;51.936;7.184;2023-05-21T10:28:02;23.10;99.90
46608;DHT22;32330;51.936;7.184;2023-05-21T10:30:31;23.00;99.90
46608;DHT22;32330;51.936;7.184;2023-05-21T10:32:58;23.00;99.90
46608;DHT22;32330;51.936;7.184;2023-05-21T10:35:27;23.30;99.90
46608;DHT22;32330;51.936;7.184;2023-05-21T10:37:55;23.10;99.90
46608;DHT22;32330;51.936;7.184;2023-05-21T10:40:22;23.30;99.90
46608;DHT22;32330;51.936;7.184;2023-05-21T10:43:08;23.40;99.90
46608;DHT22;32330;51.936;7.184;2023-05-21T10:45:46;23.40;99.90
46608;DHT22;32330;51.936;7.184;2023-05-21T10:48:29;23.30;99.90
46608;DHT22;32330;51.936;7.184;2023-05-21T10:51:09;23.70;99.90
46608;DHT22;32330;51.936;7.184;2023-05-21T10:53:42;23.70;99.90
46608;DHT22;32330;51.936;7.184;2023-05-21T10:56:15;23.80;99.70
46608;DHT22;32330;51.936;7.184;2023-05-21T10:58:58;23.90;99.90
46608;DHT22;32330;51.936;7.184;2023-05-21T11:02:03;24.00;99.30
46608;DHT22;32330;51.936;7.184;2023-05-21T11:07:13;24.10;99.60
46608;DHT22;32330;51.936;7.184;2023-05-21T11:09:41;24.30;98.90
46608;DHT22;32330;51.936;7.184;2023-05-21T11:12:08;24.40;98.70
46608;DHT22;32330;51.936;7.184;2023-05-21T11:14:37;24.60;98.60
46608;DHT22;32330;51.936;7.184;2023-05-21T11:17:08;24.90;98.70
46608;DHT22;32330;51.936;7.184;2023-05-21T11:19:37;24.70;97.40
46608;DHT22;32330;51.936;7.184;2023-05-21T11:22:04;24.60;98.40
46608;DHT22;32330;51.936;7.184;2023-05-21T11:24:31;24.50;98.30
46608;DHT22;32330;51.936;7.184;2023-05-21T11:27:00;24.40;98.80
46608;DHT22;32330;51.936;7.184;2023-05-21T11:29:36;24.30;98.60
46608;DHT22;32330;51.936;7.184;2023-05-21T11:32:06;24.60;98.40
46608;DHT22;32330;51.936;7.184;2023-05-21T11:34:38;24.60;98.30
46608;DHT22;32330;51.936;7.184;2023-05-21T11:37:23;24.60;98.10
46608;DHT22;32330;51.936;7.184;2023-05-21T11:39:52;24.60;98.40
46608;DHT22;32330;51.936;7.184;2023-05-21T11:42:27;24.60;98.00
46608;DHT22;32330;51.936;7.184;2023-05-21T11:44:55;24.70;97.60
46608;DHT22;32330;51.936;7.184;2023-05-21T11:47:22;24.60;98.00
46608;DHT22;32330;51.936;7.184;2023-05-21T11:49:50;24.70;97.50
46608;DHT22;32330;51.936;7.184;2023-05-21T11:52:17;24.80;97.60
46608;DHT22;32330;51.936;7.184;2023-05-21T11:54:45;25.10;97.60
46608;DHT22;32330;51.936;7.184;2023-05-21T11:57:13;25.10;97.50
46608;DHT22;32330;51.936;7.184;2023-05-21T11:59:42;25.20;97.10
46608;DHT22;32330;51.936;7.184;2023-05-21T12:02:12;25.60;96.80
46608;DHT22;32330;51.936;7.184;2023-05-21T12:04:39;25.70;96.80
46608;DHT22;32330;51.936;7.184;2023-05-21T12:07:07;25.80;95.90
46608;DHT22;32330;51.936;7.184;2023-05-21T12:09:37;25.70;95.40
46608;DHT22;32330;51.936;7.184;2023-05-21T12:12:04;25.70;96.50
46608;DHT22;32330;51.936;7.184;2023-05-21T12:14:31;25.80;96.10
46608;DHT22;32330;51.936;7.184;2023-05-21T12:16:59;26.00;96.70
46608;DHT22;32330;51.936;7.184;2023-05-21T12:19:27;25.70;96.20
46608;DHT22;32330;51.936;7.184;2023-05-21T12:21:53;25.50;96.20
46608;DHT22;32330;51.936;7.184;2023-05-21T12:24:20;25.70;96.20
46608;DHT22;32330;51.936;7.184;2023-05-21T12:26:47;25.70;96.20
46608;DHT22;32330;51.936;7.184;2023-05-21T12:29:16;25.90;96.00
46608;DHT22;32330;51.936;7.184;2023-05-21T12:31:46;25.80;95.60
46608;DHT22;32330;51.936;7.184;2023-05-21T12:34:15;26.20;95.70
46608;DHT22;32330;51.936;7.184;2023-05-21T12:36:43;26.20;94.80
46608;DHT22;32330;51.936;7.184;2023-05-21T12:39:13;26.40;95.70
46608;DHT22;32330;51.936;7.184;2023-05-21T12:41:39;26.50;95.00
46608;DHT22;32330;51.936;7.184;2023-05-21T12:44:06;26.70;95.30
46608;DHT22;32330;51.936;7.184;2023-05-21T12:46:34;27.00;94.60
46608;DHT22;32330;51.936;7.184;2023-05-21T12:49:01;26.90;94.60
46608;DHT22;32330;51.936;7.184;2023-05-21T12:51:37;27.20;94.50
46608;DHT22;32330;51.936;7.184;2023-05-21T12:54:10;27.00;94.50
46608;DHT22;32330;51.936;7.184;2023-05-21T12:56:42;26.80;94.30
46608;DHT22;32330;51.936;7.184;2023-05-21T12:59:11;26.90;94.30
46608;DHT22;32330;51.936;7.184;2023-05-21T13:01:41;26.90;94.70
46608;DHT22;32330;51.936;7.184;2023-05-21T13:04:08;27.20;94.20
46608;DHT22;32330;51.936;7.184;2023-05-21T13:06:42;27.50;94.10
46608;DHT22;32330;51.936;7.184;2023-05-21T13:09:09;27.70;94.10
46608;DHT22;32330;51.936;7.184;2023-05-21T13:11:36;27.70;93.00
46608;DHT22;32330;51.936;7.184;2023-05-21T13:14:02;27.60;93.00
46608;DHT22;32330;51.936;7.184;2023-05-21T13:16:29;27.60;93.80
46608;DHT22;32330;51.936;7.184;2023-05-21T13:18:56;27.80;93.20
46608;DHT22;32330;51.936;7.184;2023-05-21T13:21:23;27.80;93.10
46608;DHT22;32330;51.936;7.184;2023-05-21T13:23:51;27.90;92.70
46608;DHT22;32330;51.936;7.184;2023-05-21T13:26:18;28.20;93.30
46608;DHT22;32330;51.936;7.184;2023-05-21T13:28:45;28.30;92.50
46608;DHT22;32330;51.936;7.184;2023-05-21T13:31:12;28.30;92.70
46608;DHT22;32330;51.936;7.184;2023-05-21T13:33:40;28.10;92.40
46608;DHT22;32330;51.936;7.184;2023-05-21T13:36:07;28.40;92.40
46608;DHT22;32330;51.936;7.184;2023-05-21T13:38:34;28.30;91.80
46608;DHT22;32330;51.936;7.184;2023-05-21T13:41:02;28.20;91.90
46608;DHT22;32330;51.936;7.184;2023-05-21T13:43:29;28.00;91.80
46608;DHT22;32330;51.936;7.184;2023-05-21T13:45:56;28.00;92.50
46608;DHT22;32330;51.936;7.184;2023-05-21T13:48:23;28.10;92.10
46608;DHT22;32330;51.936;7.184;2023-05-21T13:50:50;28.20;92.10
46608;DHT22;32330;51.936;7.184;2023-05-21T13:53:17;28.30;91.30
46608;DHT22;32330;51.936;7.184;2023-05-21T13:55:44;28.30;91.70
46608;DHT22;32330;51.936;7.184;2023-05-21T13:58:12;28.50;91.40
46608;DHT22;32330;51.936;7.184;2023-05-21T14:00:39;28.50;91.20
46608;DHT22;32330;51.936;7.184;2023-05-21T14:03:07;28.60;91.30
46608;DHT22;32330;51.936;7.184;2023-05-21T14:05:35;28.70;91.20
46608;DHT22;32330;51.936;7.184;2023-05-21T14:08:02;28.80;91.30
46608;DHT22;32330;51.936;7.184;2023-05-21T14:10:29;28.80;91.10
46608;DHT22;32330;51.936;7.184;2023-05-21T14:12:55;28.70;91.20
46608;DHT22;32330;51.936;7.184;2023-05-21T14:15:23;29.00;90.90
46608;DHT22;32330;51.936;7.184;2023-05-21T14:17:51;28.90;90.80
46608;DHT22;32330;51.936;7.184;2023-05-21T14:20:18;29.00;91.30
46608;DHT22;32330;51.936;7.184;2023-05-21T14:22:45;28.90;90.70
46608;DHT22;32330;51.936;7.184;2023-05-21T14:25:11;28.80;90.60
46608;DHT22;32330;51.936;7.184;2023-05-21T14:27:39;28.70;90.30
46608;DHT22;32330;51.936;7.184;2023-05-21T14:30:06;28.80;90.40
46608;DHT22;32330;51.936;7.184;2023-05-21T14:32:34;28.50;90.50
46608;DHT22;32330;51.936;7.184;2023-05-21T14:35:02;28.50;90.30
46608;DHT22;32330;51.936;7.184;2023-05-21T14:37:29;28.50;91.10
46608;DHT22;32330;51.936;7.184;2023-05-21T14:39:56;28.60;90.90
46608;DHT22;32330;51.936;7.184;2023-05-21T14:42:23;28.80;91.10
46608;DHT22;32330;51.936;7.184;2023-05-21T14:44:50;28.90;90.90
46608;DHT22;32330;51.936;7.184;2023-05-21T14:47:16;28.80;90.70
46608;DHT22;32330;51.936;7.184;2023-05-21T14:49:45;28.90;91.20
46608;DHT22;32330;51.936;7.184;2023-05-21T14:52:11;28.90;90.60
46608;DHT22;32330;51.936;7.184;2023-05-21T14:54:38;28.50;90.50
46608;DHT22;32330;51.936;7.184;2023-05-21T14:57:05;28.80;90.50
46608;DHT22;32330;51.936;7.184;2023-05-21T14:59:32;28.90;90.70
46608;DHT22;32330;51.936;7.184;2023-05-21T15:01:58;28.80;90.50
46608;DHT22;32330;51.936;7.184;2023-05-21T15:04:25;28.70;91.10
46608;DHT22;32330;51.936;7.184;2023-05-21T15:06:53;28.40;90.60
46608;DHT22;32330;51.936;7.184;2023-05-21T15:09:20;28.10;91.00
46608;DHT22;32330;51.936;7.184;2023-05-21T15:11:47;28.00;91.20
46608;DHT22;32330;51.936;7.184;2023-05-21T15:14:17;27.90;91.40
46608;DHT22;32330;51.936;7.184;2023-05-21T15:16:43;27.50;91.80
46608;DHT22;32330;51.936;7.184;2023-05-21T15:19:10;27.50;92.10
46608;DHT22;32330;51.936;7.184;2023-05-21T15:21:37;27.50;92.30
46608;DHT22;32330;51.936;7.184;2023-05-21T15:24:06;27.50;91.90
46608;DHT22;32330;51.936;7.184;2023-05-21T15:26:32;27.50;92.00
46608;DHT22;32330;51.936;7.184;2023-05-21T15:28:59;27.30;92.30
46608;DHT22;32330;51.936;7.184;2023-05-21T15:31:27;27.40;92.30
46608;DHT22;32330;51.936;7.184;2023-05-21T15:33:54;27.40;92.40
46608;DHT22;32330;51.936;7.184;2023-05-21T15:36:21;27.40;92.30
46608;DHT22;32330;51.936;7.184;2023-05-21T15:38:48;27.10;92.80
46608;DHT22;32330;51.936;7.184;2023-05-21T15:41:16;27.30;92.70
46608;DHT22;32330;51.936;7.184;2023-05-21T15:43:44;27.30;92.40